Time;durP1;ratioP1;P1;durP2;ratioP2;P2;SDS_P1;SDS_P2;PMS_P1;PMS_P2;Temp;Humidity;BMP_temperature;BMP_pressure;BME280_temperature;BME280_humidity;BME280_pressure;Samples;Min_cycle;Max_cycle;Signal;HPM_P1;HPM_P2
2023/05/15 00:00:44;;;;;;;15.30;10.60;;;;;;;12.19;95.79;97906.98;105189;1258;97904;-69
2023/05/15 00:03:11;;;;;;;14.30;10.00;;;;;;;12.19;95.72;97903.27;105084;1256;97861;-70
2023/05/15 00:05:39;;;;;;;14.40;10.00;;;;;;;12.17;96.06;97897.80;105077;1260;96568;-68
2023/05/15 00:08:06;;;;;;;12.90;10.00;;;;;;;12.14;96.31;97893.40;105139;1267;97903;-68
2023/05/15 00:10:33;;;;;;;10.20;7.70;;;;;;;12.13;96.21;97893.52;105018;1268;96560;-67
2023/05/15 00:13:00;;;;;;;10.30;6.80;;;;;;;12.07;96.58;97889.24;105016;1260;97435;-67
2023/05/15 00:15:27;;;;;;;9.80;6.90;;;;;;;12.00;96.71;97881.70;105166;1260;96585;-70
2023/05/15 00:17:54;;;;;;;8.90;6.60;;;;;;;11.98;96.50;97883.67;105189;1258;97957;-71
2023/05/15 00:20:21;;;;;;;9.20;6.50;;;;;;;11.99;96.59;97875.55;105185;1259;96510;-67
2023/05/15 00:22:49;;;;;;;8.60;6.40;;;;;;;11.98;96.60;97870.49;105179;1268;96552;-68
2023/05/15 00:25:18;;;;;;;9.80;6.00;;;;;;;11.92;96.83;97860.44;105176;1260;96523;-68
2023/05/15 00:27:45;;;;;;;8.10;5.80;;;;;;;11.87;97.09;97852.88;105068;1267;97638;-69
2023/05/15 00:30:13;;;;;;;6.60;5.60;;;;;;;11.85;97.48;97849.23;105179;1256;96567;-69
2023/05/15 00:32:40;;;;;;;9.70;6.00;;;;;;;11.84;97.36;97843.63;105185;1259;97454;-70
2023/05/15 00:35:08;;;;;;;7.50;5.10;;;;;;;11.83;97.22;97845.94;105262;1260;96548;-70
2023/05/15 00:37:34;;;;;;;8.50;6.20;;;;;;;11.84;97.24;97853.08;105204;1257;97336;-69
2023/05/15 00:40:01;;;;;;;7.70;5.30;;;;;;;11.89;97.38;97848.63;105173;1256;96596;-69
2023/05/15 00:42:29;;;;;;;9.90;5.90;;;;;;;11.85;97.07;97842.70;105118;1269;96533;-70
2023/05/15 00:44:59;;;;;;;6.80;5.50;;;;;;;11.82;97.32;97838.29;105279;1260;96566;-71
2023/05/15 00:47:27;;;;;;;7.40;5.20;;;;;;;11.84;97.26;97834.37;105258;1269;110444;-71
2023/05/15 00:49:56;;;;;;;7.60;5.70;;;;;;;11.81;97.15;97830.84;105327;1254;98193;-70
2023/05/15 00:52:23;;;;;;;7.90;5.30;;;;;;;11.84;97.39;97830.13;104938;1262;108334;-71
2023/05/15 00:54:50;;;;;;;7.50;5.60;;;;;;;11.83;97.23;97825.33;105262;1256;96561;-72
2023/05/15 00:57:20;;;;;;;5.20;4.30;;;;;;;11.85;97.33;97825.37;105053;1259;96612;-73
2023/05/15 00:59:48;;;;;;;6.20;5.10;;;;;;;11.82;97.55;97820.02;105631;1260;109919;-72
2023/05/15 01:02:18;;;;;;;5.90;4.80;;;;;;;11.77;97.62;97812.34;105881;1258;99044;-74
2023/05/15 01:04:45;;;;;;;6.60;5.50;;;;;;;11.75;97.59;97812.20;105193;1254;109799;-73
2023/05/15 01:07:12;;;;;;;6.80;4.80;;;;;;;11.76;97.58;97816.62;105239;1259;97849;-77
2023/05/15 01:09:43;;;;;;;8.60;5.30;;;;;;;11.73;97.95;97810.79;105147;1268;96552;-71
2023/05/15 01:12:13;;;;;;;7.60;5.70;;;;;;;11.70;98.22;97812.27;105156;1276;111021;-71
2023/05/15 01:14:41;;;;;;;6.80;5.10;;;;;;;11.68;98.23;97807.58;104986;1261;97853;-73
2023/05/15 01:17:07;;;;;;;6.70;5.00;;;;;;;11.68;98.16;97805.86;105120;1259;96529;-72
2023/05/15 01:19:35;;;;;;;6.80;4.60;;;;;;;11.65;98.35;97797.31;105249;1255;97855;-71
2023/05/15 01:22:02;;;;;;;6.90;4.40;;;;;;;11.65;98.34;97789.77;105131;1261;96535;-70
2023/05/15 01:24:55;;;;;;;5.20;4.40;;;;;;;11.65;98.21;97791.80;105121;1270;97698;-70
2023/05/15 01:27:34;;;;;;;5.50;4.80;;;;;;;11.63;98.38;97801.48;105102;1260;99374;-71
2023/05/15 01:30:06;;;;;;;6.50;4.80;;;;;;;11.63;98.17;97800.54;104991;1258;108573;-71
2023/05/15 01:32:49;;;;;;;7.30;5.10;;;;;;;11.61;98.51;97801.86;105123;1268;96482;-70
2023/05/15 01:35:38;;;;;;;5.80;4.70;;;;;;;11.60;98.71;97799.81;105073;1267;97008;-70
2023/05/15 01:38:22;;;;;;;5.30;4.20;;;;;;;11.61;98.34;97792.23;105090;1260;110982;-69
2023/05/15 01:41:15;;;;;;;5.90;4.60;;;;;;;11.57;98.73;97793.13;105230;1259;98756;-74
2023/05/15 01:43:44;;;;;;;6.90;5.50;;;;;;;11.56;98.49;97793.48;105073;1257;108543;-70
2023/05/15 01:46:18;;;;;;;5.30;4.30;;;;;;;11.56;98.85;97796.63;105248;1260;96542;-70
2023/05/15 01:48:47;;;;;;;5.10;4.00;;;;;;;11.56;99.08;97796.23;104919;1253;98177;-70
2023/05/15 01:51:16;;;;;;;7.30;4.50;;;;;;;11.57;98.66;97794.52;105044;1260;110475;-71
2023/05/15 01:53:45;;;;;;;8.60;5.40;;;;;;;11.54;98.75;97799.14;105009;1255;98168;-68
2023/05/15 01:56:14;;;;;;;6.60;4.10;;;;;;;11.52;99.10;97799.32;105108;1267;108594;-70
2023/05/15 01:58:43;;;;;;;9.90;6.50;;;;;;;11.50;99.20;97798.79;105198;1267;96635;-71
2023/05/15 02:01:12;;;;;;;6.80;5.00;;;;;;;11.55;99.39;97801.13;105186;1260;96909;-70
2023/05/15 02:03:40;;;;;;;8.10;7.10;;;;;;;11.52;99.37;97798.13;105254;1257;111028;-69
2023/05/15 02:06:08;;;;;;;8.60;6.30;;;;;;;11.52;99.24;97796.64;105165;1269;98846;-71
2023/05/15 02:08:36;;;;;;;11.00;8.10;;;;;;;11.55;99.29;97800.75;105201;1259;108673;-70
2023/05/15 02:11:04;;;;;;;11.30;9.20;;;;;;;11.61;99.14;97797.95;104998;1257;97366;-70
2023/05/15 02:13:33;;;;;;;12.50;9.20;;;;;;;11.64;98.97;97793.73;105215;1260;98291;-70
2023/05/15 02:16:00;;;;;;;12.00;9.50;;;;;;;11.59;98.82;97787.84;105307;1267;110162;-70
2023/05/15 02:18:27;;;;;;;12.00;9.80;;;;;;;11.61;99.01;97784.15;105179;1268;96622;-71
2023/05/15 02:20:54;;;;;;;9.50;8.10;;;;;;;11.60;98.81;97775.02;105167;1260;96568;-70
2023/05/15 02:23:21;;;;;;;7.90;6.60;;;;;;;11.62;98.81;97775.30;105093;1261;96553;-71
2023/05/15 02:26:20;;;;;;;8.40;6.60;;;;;;;11.56;99.02;97771.54;105260;1260;97079;-71
2023/05/15 02:29:09;;;;;;;8.20;5.50;;;;;;;11.53;98.97;97770.48;104313;1268;109911;-72
2023/05/15 02:31:58;;;;;;;8.20;5.40;;;;;;;11.54;99.33;97772.65;104563;1276;98921;-72
2023/05/15 02:34:31;;;;;;;7.40;5.10;;;;;;;11.59;99.35;97769.35;104432;1278;108211;-73
2023/05/15 02:37:00;;;;;;;7.60;5.20;;;;;;;11.60;99.23;97766.78;104304;1268;96907;-70
2023/05/15 02:39:28;;;;;;;9.30;6.20;;;;;;;11.57;99.13;97766.79;104512;1268;97861;-68
2023/05/15 02:41:56;;;;;;;6.70;5.20;;;;;;;11.60;99.30;97769.84;104400;1267;110809;-66
2023/05/15 02:44:25;;;;;;;7.00;5.80;;;;;;;11.62;98.87;97766.53;104407;1285;99218;-66
2023/05/15 02:46:53;;;;;;;11.40;6.70;;;;;;;11.60;98.87;97761.95;104435;1270;108644;-67
2023/05/15 02:49:21;;;;;;;9.90;7.90;;;;;;;11.58;98.97;97757.56;104101;1271;96758;-68
2023/05/15 02:51:48;;;;;;;8.70;7.20;;;;;;;11.53;99.32;97753.49;104352;1278;96942;-67
2023/05/15 02:54:15;;;;;;;9.90;7.40;;;;;;;11.53;99.57;97754.02;104351;1269;96646;-70
2023/05/15 02:56:42;;;;;;;10.20;7.80;;;;;;;11.54;99.26;97752.10;104410;1269;96566;-70
2023/05/15 02:59:09;;;;;;;9.70;7.40;;;;;;;11.58;99.42;97748.30;104484;1276;97619;-69
2023/05/15 03:01:36;;;;;;;9.30;7.80;;;;;;;11.60;98.88;97752.28;104402;1268;96743;-71
2023/05/15 03:04:03;;;;;;;10.40;7.80;;;;;;;11.64;98.97;97752.34;104624;1267;96714;-70
2023/05/15 03:06:30;;;;;;;12.40;9.80;;;;;;;11.67;99.26;97751.41;104735;1268;97855;-71
2023/05/15 03:08:57;;;;;;;13.60;8.10;;;;;;;11.71;98.93;97749.57;105316;1257;97234;-70
2023/05/15 03:11:24;;;;;;;9.70;7.70;;;;;;;11.75;99.01;97746.64;105021;1262;96629;-71
2023/05/15 03:13:51;;;;;;;9.00;6.00;;;;;;;11.82;99.10;97748.80;104942;1264;96596;-70
2023/05/15 03:16:17;;;;;;;6.40;5.70;;;;;;;11.83;98.46;97745.23;105074;1260;97441;-69
2023/05/15 03:18:45;;;;;;;11.90;5.80;;;;;;;11.83;98.35;97746.80;105205;1267;97906;-68
2023/05/15 03:21:13;;;;;;;8.20;6.30;;;;;;;11.85;98.37;97742.55;105142;1260;96622;-67
2023/05/15 03:23:40;;;;;;;7.70;5.90;;;;;;;11.84;98.09;97733.41;105132;1276;96540;-67
2023/05/15 03:26:07;;;;;;;7.40;6.10;;;;;;;11.82;98.22;97728.25;105210;1260;97775;-67
2023/05/15 03:28:34;;;;;;;7.10;5.90;;;;;;;11.75;98.23;97725.70;105178;1260;96597;-68
2023/05/15 03:31:03;;;;;;;11.90;8.30;;;;;;;11.72;98.24;97719.95;105145;1260;97467;-67
2023/05/15 03:33:30;;;;;;;13.00;9.00;;;;;;;11.64;99.08;97714.32;105172;1264;96555;-66
2023/05/15 03:35:58;;;;;;;13.90;10.20;;;;;;;11.56;99.39;97712.27;105142;1259;97871;-68
2023/05/15 03:38:27;;;;;;;12.00;9.50;;;;;;;11.51;99.74;97705.91;105072;1258;96655;-69
2023/05/15 03:40:57;;;;;;;9.50;6.90;;;;;;;11.48;99.83;97705.64;105128;1258;110520;-69
2023/05/15 03:43:24;;;;;;;9.70;6.20;;;;;;;11.46;99.91;97698.79;105008;1257;97976;-70
2023/05/15 03:45:51;;;;;;;8.90;6.30;;;;;;;11.42;100.00;97699.67;105059;1260;96544;-69
2023/05/15 03:48:18;;;;;;;9.50;6.40;;;;;;;11.42;100.00;97695.75;104986;1267;97158;-70
2023/05/15 03:50:45;;;;;;;7.30;6.20;;;;;;;11.42;100.00;97697.58;105090;1258;96543;-69
2023/05/15 03:53:12;;;;;;;8.00;6.20;;;;;;;11.40;100.00;97696.58;105185;1268;96609;-67
2023/05/15 03:55:40;;;;;;;6.80;5.70;;;;;;;11.36;100.00;97695.04;105214;1266;96696;-67
2023/05/15 03:58:07;;;;;;;8.00;5.80;;;;;;;11.34;100.00;97699.20;105064;1255;96556;-66
2023/05/15 04:00:34;;;;;;;8.30;5.90;;;;;;;11.39;100.00;97701.14;105211;1260;97878;-67
2023/05/15 04:03:01;;;;;;;8.20;6.60;;;;;;;11.42;100.00;97706.04;105225;1269;97486;-67
2023/05/15 04:05:28;;;;;;;11.60;7.80;;;;;;;11.45;100.00;97705.27;105018;1271;98827;-65
2023/05/15 04:07:55;;;;;;;9.80;7.50;;;;;;;11.46;100.00;97709.05;105009;1267;96555;-65
2023/05/15 04:10:22;;;;;;;11.40;8.10;;;;;;;11.53;100.00;97711.38;105124;1266;97868;-66
2023/05/15 04:12:50;;;;;;;11.50;9.50;;;;;;;11.60;100.00;97710.88;105167;1266;98330;-66
2023/05/15 04:15:20;;;;;;;16.40;9.70;;;;;;;11.67;100.00;97714.00;105154;1263;97457;-66
2023/05/15 04:17:49;;;;;;;11.40;8.50;;;;;;;11.73;100.00;97712.77;105065;1266;99459;-65
2023/05/15 04:20:19;;;;;;;9.00;5.60;;;;;;;11.74;99.99;97712.11;104883;1261;107561;-70
2023/05/15 04:22:46;;;;;;;9.30;7.00;;;;;;;11.73;100.00;97708.70;104997;1266;96538;-65
2023/05/15 04:25:14;;;;;;;9.60;6.30;;;;;;;11.71;99.98;97704.97;105103;1266;98400;-66
2023/05/15 04:27:43;;;;;;;8.70;7.20;;;;;;;11.67;100.00;97698.41;104985;1258;109289;-64
2023/05/15 04:30:11;;;;;;;12.80;8.60;;;;;;;11.63;100.00;97693.12;104840;1270;98033;-64
2023/05/15 04:32:39;;;;;;;13.60;10.10;;;;;;;11.60;100.00;97694.44;105001;1261;108568;-64
2023/05/15 04:35:09;;;;;;;13.30;11.20;;;;;;;11.61;100.00;97689.03;105182;1276;96558;-64
2023/05/15 04:37:37;;;;;;;10.00;7.90;;;;;;;11.63;100.00;97684.48;105078;1269;97026;-64
2023/05/15 04:40:06;;;;;;;11.50;9.10;;;;;;;11.59;100.00;97678.79;105212;1270;110908;-63
2023/05/15 04:42:35;;;;;;;10.30;7.40;;;;;;;11.59;100.00;97677.00;105198;1260;98696;-63
2023/05/15 04:45:04;;;;;;;8.40;6.10;;;;;;;11.60;100.00;97677.80;104992;1263;105904;-63
2023/05/15 04:47:31;;;;;;;7.20;5.60;;;;;;;11.60;100.00;97681.97;105593;1257;96567;-64
2023/05/15 04:49:58;;;;;;;8.80;6.50;;;;;;;11.59;100.00;97682.64;105159;1266;97454;-63
2023/05/15 04:52:25;;;;;;;6.80;5.50;;;;;;;11.61;100.00;97680.83;105094;1268;96558;-63
2023/05/15 04:54:54;;;;;;;9.60;7.70;;;;;;;11.65;100.00;97678.13;105101;1260;97740;-64
2023/05/15 04:57:22;;;;;;;9.80;8.10;;;;;;;11.70;100.00;97679.05;105106;1269;108538;-64
2023/05/15 04:59:49;;;;;;;10.50;8.10;;;;;;;11.75;100.00;97682.63;105172;1257;96632;-64
2023/05/15 05:02:21;;;;;;;12.10;8.30;;;;;;;11.77;100.00;97675.59;105028;1257;97855;-64
2023/05/15 05:04:48;;;;;;;8.80;7.40;;;;;;;11.84;100.00;97677.73;105090;1267;110972;-64
2023/05/15 05:07:15;;;;;;;9.80;8.60;;;;;;;11.88;100.00;97669.70;105202;1258;99204;-64
2023/05/15 05:09:43;;;;;;;10.20;8.60;;;;;;;11.92;100.00;97667.16;105115;1260;96542;-64
2023/05/15 05:12:10;;;;;;;11.60;9.30;;;;;;;11.99;100.00;97666.41;105004;1260;97199;-64
2023/05/15 05:14:39;;;;;;;10.00;8.40;;;;;;;12.08;100.00;97669.35;105213;1259;96627;-65
2023/05/15 05:17:06;;;;;;;11.90;10.40;;;;;;;12.11;100.00;97663.89;104811;1271;110396;-64
2023/05/15 05:19:33;;;;;;;9.60;8.60;;;;;;;12.18;100.00;97663.27;105218;1263;96558;-66
2023/05/15 05:22:03;;;;;;;8.50;7.50;;;;;;;12.24;100.00;97658.44;105018;1253;97149;-64
2023/05/15 05:24:31;;;;;;;8.60;7.70;;;;;;;12.31;99.93;97661.59;105205;1267;96682;-65
2023/05/15 05:26:59;;;;;;;7.80;6.80;;;;;;;12.30;99.75;97657.33;105043;1271;96641;-65
2023/05/15 05:29:26;;;;;;;5.40;4.70;;;;;;;12.31;99.69;97657.52;104914;1270;110441;-65
2023/05/15 05:31:53;;;;;;;6.80;6.00;;;;;;;12.30;99.75;97658.13;105153;1266;96564;-65
2023/05/15 05:34:20;;;;;;;7.80;6.10;;;;;;;12.28;99.51;97660.42;105140;1267;96610;-65
2023/05/15 05:36:48;;;;;;;8.80;7.90;;;;;;;12.21;99.38;97658.81;105168;1254;96558;-65
2023/05/15 05:39:15;;;;;;;11.20;9.00;;;;;;;12.17;99.57;97656.59;105075;1266;96593;-64
2023/05/15 05:41:43;;;;;;;14.10;7.00;;;;;;;12.13;99.60;97655.32;105154;1254;96576;-68
2023/05/15 05:44:10;;;;;;;9.20;8.10;;;;;;;12.15;99.85;97653.62;105027;1266;97844;-65
2023/05/15 05:46:37;;;;;;;10.00;8.60;;;;;;;12.18;99.94;97651.81;105107;1266;96561;-64
2023/05/15 05:49:04;;;;;;;9.80;8.20;;;;;;;12.11;100.00;97652.50;105574;1273;97266;-63
2023/05/15 05:51:31;;;;;;;10.60;8.80;;;;;;;12.08;99.98;97650.61;105044;1260;96564;-64
2023/05/15 05:53:58;;;;;;;11.50;9.10;;;;;;;12.08;100.00;97642.04;105095;1266;96611;-65
2023/05/15 05:56:25;;;;;;;11.00;8.50;;;;;;;12.10;100.00;97651.14;105031;1267;96564;-65
2023/05/15 05:58:53;;;;;;;11.20;9.00;;;;;;;12.16;100.00;97655.47;105092;1254;98055;-66
2023/05/15 06:01:20;;;;;;;11.40;8.50;;;;;;;12.23;100.00;97654.08;105041;1266;96876;-65
2023/05/15 06:03:47;;;;;;;8.70;7.80;;;;;;;12.19;100.00;97648.02;105162;1266;97550;-64
2023/05/15 06:06:14;;;;;;;8.20;6.90;;;;;;;12.15;100.00;97642.95;105243;1266;96622;-66
2023/05/15 06:08:41;;;;;;;7.40;6.50;;;;;;;12.10;100.00;97638.65;104894;1276;97855;-66
2023/05/15 06:11:08;;;;;;;6.70;6.00;;;;;;;12.09;100.00;97638.38;104960;1266;96555;-66
2023/05/15 06:13:35;;;;;;;5.80;4.10;;;;;;;12.17;100.00;97642.08;104976;1264;98354;-66
2023/05/15 06:16:03;;;;;;;6.00;5.40;;;;;;;12.23;100.00;97641.05;105044;1268;96958;-65
2023/05/15 06:18:30;;;;;;;6.50;5.40;;;;;;;12.27;100.00;97638.18;105044;1266;97615;-65
2023/05/15 06:20:59;;;;;;;7.60;6.10;;;;;;;12.29;100.00;97635.56;105153;1267;96563;-65
2023/05/15 06:23:26;;;;;;;8.40;7.60;;;;;;;12.27;99.70;97636.84;105162;1266;97849;-65
2023/05/15 06:25:53;;;;;;;11.20;8.90;;;;;;;12.26;99.85;97635.02;104954;1257;96620;-66
2023/05/15 06:28:20;;;;;;;11.00;9.40;;;;;;;12.33;99.94;97634.17;105083;1258;97744;-67
2023/05/15 06:30:47;;;;;;;12.10;9.60;;;;;;;12.39;99.74;97636.15;105166;1268;97548;-67
2023/05/15 06:33:14;;;;;;;7.50;6.50;;;;;;;12.42;99.68;97637.08;105221;1258;96564;-66
2023/05/15 06:35:41;;;;;;;8.30;7.40;;;;;;;12.45;99.10;97636.23;105169;1260;96558;-67
2023/05/15 06:38:08;;;;;;;10.10;7.70;;;;;;;12.51;99.38;97637.33;104951;1257;349135;-66
2023/05/15 06:40:35;;;;;;;8.00;6.70;;;;;;;12.54;99.35;97636.53;104916;1260;98246;-65
2023/05/15 06:43:02;;;;;;;8.50;6.30;;;;;;;12.54;98.85;97632.52;104950;1257;96545;-66
2023/05/15 06:45:30;;;;;;;8.50;6.50;;;;;;;12.54;98.94;97636.30;105099;1260;96571;-65
2023/05/15 06:47:57;;;;;;;9.10;6.50;;;;;;;12.55;99.14;97633.19;104979;1266;96565;-65
2023/05/15 06:50:27;;;;;;;10.30;6.70;;;;;;;12.58;99.10;97638.69;105360;1266;110738;-67
2023/05/15 06:52:54;;;;;;;5.90;5.00;;;;;;;12.59;98.88;97635.73;105106;1268;96631;-65
2023/05/15 06:55:21;;;;;;;7.20;6.30;;;;;;;12.57;98.38;97637.94;105079;1266;97835;-66
2023/05/15 06:57:48;;;;;;;6.20;5.50;;;;;;;12.61;99.01;97640.73;105035;1259;96545;-66
2023/05/15 07:00:15;;;;;;;6.60;5.80;;;;;;;12.62;98.35;97637.93;104980;1267;97147;-66
2023/05/15 07:02:42;;;;;;;7.90;6.40;;;;;;;12.64;98.49;97639.00;104980;1261;97857;-65
2023/05/15 07:05:10;;;;;;;7.60;6.30;;;;;;;12.68;98.65;97640.75;104989;1275;96615;-67
2023/05/15 07:07:37;;;;;;;8.40;7.00;;;;;;;12.76;99.05;97639.21;104844;1271;97009;-66
2023/05/15 07:10:05;;;;;;;7.30;6.60;;;;;;;12.81;98.87;97639.42;105134;1257;96572;-65
2023/05/15 07:12:33;;;;;;;7.80;7.00;;;;;;;12.86;98.46;97641.34;105067;1260;97396;-67
2023/05/15 07:15:00;;;;;;;6.60;5.80;;;;;;;12.88;98.45;97633.71;105205;1257;96626;-65
2023/05/15 07:17:27;;;;;;;8.40;7.40;;;;;;;12.93;98.72;97634.06;104990;1269;97029;-64
2023/05/15 07:19:54;;;;;;;8.80;7.60;;;;;;;13.03;99.02;97630.30;105210;1266;96529;-65
2023/05/15 07:22:21;;;;;;;11.00;7.90;;;;;;;13.09;98.42;97630.45;105156;1264;97376;-64
2023/05/15 07:24:48;;;;;;;14.70;8.10;;;;;;;13.09;97.91;97631.52;105207;1258;96638;-65
2023/05/15 07:27:15;;;;;;;12.00;10.30;;;;;;;13.07;97.59;97634.46;105179;1266;97877;-65
2023/05/15 07:29:42;;;;;;;11.10;8.10;;;;;;;13.11;98.27;97632.36;105213;1260;96552;-65
2023/05/15 07:32:10;;;;;;;11.50;8.80;;;;;;;13.13;98.07;97631.63;105211;1258;96648;-65
2023/05/15 07:34:37;;;;;;;9.20;7.50;;;;;;;13.18;98.56;97629.31;105041;1259;98149;-66
2023/05/15 07:37:04;;;;;;;8.40;6.50;;;;;;;13.21;98.01;97631.98;105169;1254;97871;-66
2023/05/15 07:39:31;;;;;;;20.10;9.30;;;;;;;13.24;97.65;97635.04;105251;1256;96651;-65
2023/05/15 07:41:58;;;;;;;12.10;7.10;;;;;;;13.23;97.19;97636.73;105154;1260;97845;-65
2023/05/15 07:44:25;;;;;;;8.80;6.50;;;;;;;13.21;96.85;97632.30;105194;1266;96615;-66
2023/05/15 07:46:55;;;;;;;6.80;5.90;;;;;;;13.22;97.07;97636.27;105056;1264;96543;-66
2023/05/15 07:49:22;;;;;;;11.50;7.40;;;;;;;13.29;97.50;97637.67;104890;1270;109369;-66
2023/05/15 07:51:49;;;;;;;13.20;7.20;;;;;;;13.28;96.19;97640.01;104995;1258;97854;-65
2023/05/15 07:54:16;;;;;;;10.30;7.20;;;;;;;13.25;96.29;97639.70;105026;1257;96640;-65
2023/05/15 07:56:43;;;;;;;7.40;6.10;;;;;;;13.27;96.52;97639.52;105317;1267;97922;-65
2023/05/15 07:59:09;;;;;;;10.10;7.40;;;;;;;13.34;96.89;97640.77;105080;1254;96546;-66
2023/05/15 08:01:37;;;;;;;10.80;7.60;;;;;;;13.43;97.31;97647.02;105125;1266;97877;-66
2023/05/15 08:04:07;;;;;;;7.60;6.00;;;;;;;13.54;97.27;97648.07;105266;1269;96845;-66
2023/05/15 08:06:38;;;;;;;7.00;5.70;;;;;;;13.54;96.05;97651.63;105268;1257;96638;-66
2023/05/15 08:09:08;;;;;;;7.60;6.20;;;;;;;13.46;95.47;97651.69;104924;1254;97669;-65
2023/05/15 08:11:35;;;;;;;7.90;6.90;;;;;;;13.38;95.77;97652.04;105100;1266;97431;-64
2023/05/15 08:14:02;;;;;;;9.10;7.10;;;;;;;13.38;96.45;97653.42;105010;1257;97932;-64
2023/05/15 08:16:29;;;;;;;9.70;7.80;;;;;;;13.39;96.71;97655.11;105014;1257;96635;-64
2023/05/15 08:19:00;;;;;;;10.80;7.70;;;;;;;13.40;96.40;97655.23;105058;1266;96645;-63
2023/05/15 08:21:28;;;;;;;10.70;8.00;;;;;;;13.38;96.26;97655.54;105176;1261;97762;-63
2023/05/15 08:23:56;;;;;;;10.50;7.70;;;;;;;13.28;95.86;97655.27;105157;1267;110855;-64
2023/05/15 08:26:23;;;;;;;9.70;7.20;;;;;;;13.25;96.52;97658.24;104688;1254;98720;-65
2023/05/15 08:28:50;;;;;;;10.60;8.00;;;;;;;13.23;96.44;97655.92;104961;1268;97492;-62
2023/05/15 08:31:17;;;;;;;12.60;8.30;;;;;;;13.27;97.27;97656.27;105126;1268;96609;-63
2023/05/15 08:33:44;;;;;;;8.60;6.40;;;;;;;13.39;97.80;97659.98;105177;1257;97845;-63
2023/05/15 08:36:12;;;;;;;8.40;6.10;;;;;;;13.41;97.03;97659.02;105201;1256;96648;-64
2023/05/15 08:38:39;;;;;;;8.50;6.10;;;;;;;13.39;96.53;97659.89;105136;1258;96549;-62
2023/05/15 08:41:37;;;;;;;8.10;6.20;;;;;;;13.40;96.84;97660.64;105042;1257;97768;-63
2023/05/15 08:44:09;;;;;;;10.40;7.40;;;;;;;13.42;96.81;97658.55;104841;1268;96716;-63
2023/05/15 08:46:37;;;;;;;9.10;7.30;;;;;;;13.40;96.36;97660.00;105073;1269;96553;-63
2023/05/15 08:49:27;;;;;;;13.20;8.70;;;;;;;13.43;97.11;97657.73;105220;1255;110954;-63
2023/05/15 08:51:55;;;;;;;9.40;7.80;;;;;;;13.50;97.44;97654.52;105114;1257;99238;-64
2023/05/15 08:54:23;;;;;;;12.30;9.60;;;;;;;13.55;97.41;97652.92;105372;1267;109051;-63
2023/05/15 08:56:50;;;;;;;10.80;9.00;;;;;;;13.63;97.10;97653.87;105041;1260;96642;-64
2023/05/15 08:59:18;;;;;;;14.00;9.50;;;;;;;13.67;96.22;97654.27;104870;1254;97945;-64
2023/05/15 09:01:48;;;;;;;10.50;7.60;;;;;;;13.69;95.80;97658.96;105253;1260;110916;-62
2023/05/15 09:04:15;;;;;;;9.50;7.80;;;;;;;13.69;95.77;97662.26;105183;1257;99022;-63
2023/05/15 09:06:43;;;;;;;10.70;8.80;;;;;;;13.73;96.39;97666.27;105004;1267;96647;-63
2023/05/15 09:09:12;;;;;;;15.20;8.80;;;;;;;13.75;96.22;97667.27;105035;1254;96531;-64
2023/05/15 09:11:43;;;;;;;11.70;8.10;;;;;;;13.74;95.94;97666.30;104764;1263;97436;-64
2023/05/15 09:14:11;;;;;;;10.60;8.50;;;;;;;13.79;96.33;97666.09;105026;1254;110777;-64
2023/05/15 09:16:38;;;;;;;10.80;8.10;;;;;;;13.95;97.41;97665.02;104602;1273;98791;-64
2023/05/15 09:19:06;;;;;;;11.50;8.40;;;;;;;14.15;97.52;97665.42;104700;1261;107999;-64
2023/05/15 09:21:33;;;;;;;11.40;8.40;;;;;;;14.29;96.77;97661.14;104751;1274;97308;-64
2023/05/15 09:24:25;;;;;;;15.60;10.60;;;;;;;14.36;96.01;97664.73;104866;1276;96547;-64
2023/05/15 09:27:04;;;;;;;14.50;9.10;;;;;;;14.33;94.59;97664.44;104982;1266;110858;-64
2023/05/15 09:29:33;;;;;;;9.50;7.00;;;;;;;14.34;95.22;97664.54;105080;1263;98910;-65
2023/05/15 09:32:06;;;;;;;14.00;9.50;;;;;;;14.30;94.07;97667.85;104960;1254;109066;-64
2023/05/15 09:34:35;;;;;;;13.30;9.00;;;;;;;14.16;93.17;97665.04;104878;1269;96670;-65
2023/05/15 09:37:05;;;;;;;13.20;8.80;;;;;;;14.10;94.27;97660.69;104843;1260;96561;-64
2023/05/15 09:39:39;;;;;;;14.80;9.30;;;;;;;14.04;93.98;97656.14;105019;1260;110743;-64
2023/05/15 09:42:10;;;;;;;14.40;9.50;;;;;;;13.97;94.08;97663.80;105050;1255;99505;-65
2023/05/15 09:44:45;;;;;;;12.20;8.30;;;;;;;13.96;94.63;97671.02;105008;1254;108500;-64
2023/05/15 09:47:13;;;;;;;10.90;8.10;;;;;;;13.94;94.72;97677.26;104679;1270;96651;-65
2023/05/15 09:49:43;;;;;;;11.40;7.40;;;;;;;13.94;95.37;97674.52;105181;1266;97426;-64
2023/05/15 09:52:10;;;;;;;11.40;7.40;;;;;;;13.98;95.68;97669.09;105051;1273;109926;-66
2023/05/15 09:54:37;;;;;;;11.40;7.50;;;;;;;14.10;96.26;97672.02;105132;1267;96551;-64
2023/05/15 09:57:10;;;;;;;11.40;7.60;;;;;;;14.21;95.84;97673.35;105130;1258;97756;-65
2023/05/15 09:59:48;;;;;;;9.70;6.70;;;;;;;14.41;96.24;97675.30;105133;1267;96641;-65
2023/05/15 10:02:31;;;;;;;7.20;4.80;;;;;;;14.68;95.77;97670.14;105144;1254;97128;-65
2023/05/15 10:04:58;;;;;;;9.10;6.10;;;;;;;14.90;94.24;97662.19;105139;1258;109654;-66
2023/05/15 10:07:35;;;;;;;12.30;6.50;;;;;;;15.07;94.65;97665.56;105218;1267;96551;-66
2023/05/15 10:10:04;;;;;;;9.20;6.40;;;;;;;15.19;93.81;97666.39;105006;1261;107352;-67
2023/05/15 10:12:32;;;;;;;6.90;5.00;;;;;;;15.24;92.59;97671.20;105206;1257;97734;-68
2023/05/15 10:15:01;;;;;;;6.70;4.90;;;;;;;15.13;90.82;97679.62;105047;1263;96859;-69
2023/05/15 10:17:34;;;;;;;6.40;4.50;;;;;;;15.07;90.46;97686.61;104889;1271;109345;-69
2023/05/15 10:20:05;;;;;;;5.30;4.10;;;;;;;15.02;89.48;97688.48;105091;1257;99074;-70
2023/05/15 10:22:37;;;;;;;6.80;4.50;;;;;;;14.95;89.75;97684.27;105210;1266;108537;-71
2023/05/15 10:25:45;;;;;;;6.50;4.70;;;;;;;15.02;91.32;97682.73;105274;1258;96545;-72
2023/05/15 10:28:14;;;;;;;7.50;5.00;;;;;;;15.26;92.22;97688.27;104520;1272;96663;-72
2023/05/15 10:30:42;;;;;;;5.10;3.70;;;;;;;15.39;89.73;97688.32;104601;1267;110692;-72
2023/05/15 10:33:12;;;;;;;5.70;4.10;;;;;;;15.37;89.16;97683.23;104581;1267;96700;-72
2023/05/15 10:35:39;;;;;;;7.30;4.60;;;;;;;15.44;91.19;97683.27;104560;1262;109565;-71
2023/05/15 10:38:06;;;;;;;7.40;5.10;;;;;;;15.49;90.35;97681.91;104562;1276;96626;-71
2023/05/15 10:40:38;;;;;;;8.90;5.20;;;;;;;15.46;90.07;97680.38;104501;1266;96568;-72
2023/05/15 10:43:08;;;;;;;15.20;9.30;;;;;;;15.52;90.61;97680.30;104539;1276;110847;-71
2023/05/15 10:45:35;;;;;;;6.40;4.80;;;;;;;15.61;91.15;97681.55;104511;1262;98992;-71
2023/05/15 10:48:04;;;;;;;5.40;4.30;;;;;;;15.65;89.20;97679.01;104472;1281;97561;-70
2023/05/15 10:50:32;;;;;;;8.20;5.50;;;;;;;15.62;88.73;97679.35;104601;1276;96790;-71
2023/05/15 10:52:59;;;;;;;7.30;5.30;;;;;;;15.66;88.81;97680.27;105570;1267;96373;-72
2023/05/15 10:55:26;;;;;;;7.70;6.00;;;;;;;15.69;88.49;97676.68;104545;1268;96656;-72
2023/05/15 10:57:53;;;;;;;8.60;6.70;;;;;;;15.87;90.15;97681.11;104591;1276;97170;-71
2023/05/15 11:00:26;;;;;;;7.60;6.40;;;;;;;16.11;90.23;97677.84;105089;1268;98225;-72
2023/05/15 11:02:55;;;;;;;7.80;5.60;;;;;;;16.26;89.27;97670.19;105206;1268;96564;-70
2023/05/15 11:05:24;;;;;;;5.90;4.90;;;;;;;16.39;89.36;97658.89;105150;1267;96734;-71
2023/05/15 11:08:31;;;;;;;6.00;5.20;;;;;;;16.52;89.08;97654.92;105233;1258;109836;-71
2023/05/15 11:10:58;;;;;;;5.30;4.40;;;;;;;16.92;90.43;97652.85;104941;1261;99271;-75
2023/05/15 11:13:25;;;;;;;5.60;4.50;;;;;;;17.23;89.30;97651.33;105113;1256;96555;-71
2023/05/15 11:15:52;;;;;;;5.90;4.20;;;;;;;17.32;85.42;97650.05;105105;1256;96546;-71
2023/05/15 11:18:20;;;;;;;5.80;4.30;;;;;;;17.35;86.34;97645.48;105236;1256;97285;-71
2023/05/15 11:20:53;;;;;;;5.10;3.80;;;;;;;17.39;84.18;97644.24;105082;1257;96744;-70
2023/05/15 11:23:21;;;;;;;3.90;3.50;;;;;;;17.41;85.39;97644.89;105054;1260;98668;-70
2023/05/15 11:26:00;;;;;;;5.80;4.10;;;;;;;17.42;83.79;97644.58;104837;1263;107862;-70
2023/05/15 11:28:27;;;;;;;3.70;2.90;;;;;;;17.29;82.62;97640.86;105212;1257;97737;-70